Time;durP1;ratioP1;P1;durP2;ratioP2;P2;SDS_P1;SDS_P2;PMS_P1;PMS_P2;Temp;Humidity;BMP_temperature;BMP_pressure;BME280_temperature;BME280_humidity;BME280_pressure;Samples;Min_cycle;Max_cycle;Signal;HPM_P1;HPM_P2
2024/04/15 00:00:05;;;;;;;11.15;3.53;;;;;;;21.78;39.04;99886.34;5449386;26;20009;-25
2024/04/15 00:02:31;;;;;;;3.95;3.10;;;;;;;21.53;38.54;99904.25;5449827;26;20007;-25
2024/04/15 00:04:56;;;;;;;6.15;3.55;;;;;;;21.29;39.97;99899.38;5449764;26;20081;-26
2024/04/15 00:07:21;;;;;;;5.82;3.03;;;;;;;21.40;39.08;99885.81;5449336;26;19999;-25
2024/04/15 00:09:47;;;;;;;7.63;3.45;;;;;;;21.49;38.63;99881.53;5449332;26;20431;-26
2024/04/15 00:12:12;;;;;;;5.47;3.20;;;;;;;21.40;38.65;99880.41;5449469;26;20528;-26
2024/04/15 00:14:37;;;;;;;4.57;3.30;;;;;;;21.50;38.61;99896.69;5450122;26;19995;-25
2024/04/15 00:17:03;;;;;;;5.43;3.17;;;;;;;21.57;37.32;99893.69;5449613;26;20680;-24
2024/04/15 00:19:29;;;;;;;5.18;3.20;;;;;;;21.61;38.32;99898.31;5449477;26;20014;-25
2024/04/15 00:21:54;;;;;;;5.82;3.05;;;;;;;21.55;37.83;99887.75;5449520;26;20633;-25
2024/04/15 00:24:20;;;;;;;6.22;3.20;;;;;;;21.55;37.68;99890.44;5449299;26;20013;-25
2024/04/15 00:26:45;;;;;;;7.65;3.53;;;;;;;21.39;39.59;99887.72;5449325;26;20457;-25
2024/04/15 00:29:11;;;;;;;8.95;3.38;;;;;;;21.40;39.27;99892.06;5449306;26;19991;-25
2024/04/15 00:31:36;;;;;;;5.13;3.40;;;;;;;21.28;39.51;99884.25;5449344;26;20072;-25
2024/04/15 00:34:01;;;;;;;7.38;3.40;;;;;;;21.25;40.07;99884.78;5449497;26;20007;-26
2024/04/15 00:36:27;;;;;;;4.75;3.15;;;;;;;21.20;39.15;99878.53;5448937;26;20005;-26
2024/04/15 00:38:52;;;;;;;4.65;3.10;;;;;;;21.11;39.70;99880.16;5449369;26;20026;-26
2024/04/15 00:41:17;;;;;;;3.78;2.92;;;;;;;20.99;39.24;99877.72;5449197;26;20450;-26
2024/04/15 00:43:43;;;;;;;7.82;3.20;;;;;;;21.09;39.14;99881.25;5448902;26;20581;-26
2024/04/15 00:46:08;;;;;;;5.80;3.50;;;;;;;21.19;39.72;99866.09;5448123;26;20320;-26
2024/04/15 00:48:34;;;;;;;6.60;3.08;;;;;;;21.23;38.89;99872.59;5448414;26;20068;-26
2024/04/15 00:51:01;;;;;;;6.28;3.22;;;;;;;21.21;38.72;99864.75;5448796;26;19999;-26
2024/04/15 00:53:27;;;;;;;5.57;3.10;;;;;;;21.20;39.55;99875.84;5449134;26;19995;-26
2024/04/15 00:55:55;;;;;;;5.25;2.83;;;;;;;20.98;38.89;99857.16;5449099;26;20420;-25
2024/04/15 00:58:24;;;;;;;3.85;3.13;;;;;;;21.03;39.72;99867.97;5449158;26;19995;-25
2024/04/15 01:00:52;;;;;;;5.82;3.30;;;;;;;20.94;39.58;99862.28;5448986;26;19995;-26
2024/04/15 01:03:17;;;;;;;6.47;3.00;;;;;;;20.99;39.08;99862.28;5449127;26;19994;-26
2024/04/15 01:05:43;;;;;;;6.47;3.22;;;;;;;20.70;39.86;99862.81;5448485;26;19995;-26
2024/04/15 01:08:08;;;;;;;5.05;3.40;;;;;;;20.38;40.13;99865.66;5448484;26;19998;-25
2024/04/15 01:10:34;;;;;;;6.78;3.30;;;;;;;20.41;40.22;99861.59;5446362;26;20400;-25
2024/04/15 01:13:00;;;;;;;6.00;3.13;;;;;;;20.36;40.96;99865.13;5449798;26;20006;-26
2024/04/15 01:15:25;;;;;;;5.68;3.40;;;;;;;20.34;41.70;99869.16;5452097;26;20069;-26
2024/04/15 01:17:51;;;;;;;7.95;3.40;;;;;;;20.23;42.07;99862.91;5452329;26;20010;-26
2024/04/15 01:20:16;;;;;;;3.92;3.10;;;;;;;19.95;42.80;99874.94;5451736;26;20075;-26
2024/04/15 01:23:10;;;;;;;9.38;4.35;;;;;;;19.82;42.48;99863.53;5451948;26;19998;-26
2024/04/15 01:25:35;;;;;;;6.70;4.68;;;;;;;19.78;42.93;99865.13;5451140;26;20077;-26
2024/04/15 01:28:02;;;;;;;6.30;4.30;;;;;;;19.47;43.23;99859.50;5435612;26;20019;-26
2024/04/15 01:30:27;;;;;;;6.47;4.28;;;;;;;19.61;42.96;99850.94;5419816;26;19995;-26
2024/04/15 01:32:53;;;;;;;6.65;3.72;;;;;;;19.67;43.72;99852.63;5451897;26;20467;-25
2024/04/15 01:35:19;;;;;;;19.00;13.70;;;;;;;19.63;45.77;99859.59;5451803;26;19995;-25
2024/04/15 01:37:45;;;;;;;10.57;8.15;;;;;;;19.48;46.75;99861.13;5453293;26;19995;-25
2024/04/15 01:40:11;;;;;;;8.95;5.75;;;;;;;19.57;45.61;99863.34;5453159;26;19995;-25
2024/04/15 01:42:36;;;;;;;7.28;4.40;;;;;;;19.54;44.54;99857.38;5453141;26;20002;-25
2024/04/15 01:45:02;;;;;;;6.75;4.22;;;;;;;19.53;44.38;99863.88;5453302;26;20071;-26
2024/04/15 01:47:27;;;;;;;7.28;4.20;;;;;;;19.45;44.75;99863.53;5452896;26;19987;-26
2024/04/15 01:49:53;;;;;;;6.18;4.10;;;;;;;19.36;45.64;99860.50;5452591;26;19998;-26
2024/04/15 01:52:18;;;;;;;7.80;4.15;;;;;;;19.29;45.60;99863.41;5453320;26;20007;-26
2024/04/15 01:54:43;;;;;;;9.90;4.60;;;;;;;19.27;45.61;99862.88;5452779;26;20400;-26
2024/04/15 01:57:09;;;;;;;7.93;4.30;;;;;;;19.29;45.88;99852.63;5453201;26;20339;-26
2024/04/15 01:59:34;;;;;;;9.00;4.60;;;;;;;19.33;45.26;99853.75;5453082;26;19995;-26
2024/04/15 02:02:00;;;;;;;9.75;4.45;;;;;;;19.29;45.46;99863.41;5452764;26;20044;-26
2024/04/15 02:04:25;;;;;;;11.27;4.63;;;;;;;19.27;45.77;99859.38;5452656;26;19994;-26
2024/04/15 02:06:51;;;;;;;9.70;4.60;;;;;;;19.10;46.58;99859.50;5452810;26;19995;-26
2024/04/15 02:09:16;;;;;;;9.07;4.50;;;;;;;19.18;46.22;99864.41;5452441;26;20391;-26
2024/04/15 02:11:41;;;;;;;38.45;21.80;;;;;;;19.17;47.04;99859.28;5434760;26;20007;-26
2024/04/15 02:14:07;;;;;;;30.48;19.38;;;;;;;18.96;47.88;99856.38;5416550;26;20099;-25
2024/04/15 02:16:32;;;;;;;47.80;27.48;;;;;;;18.93;48.45;99868.50;5439978;26;20009;-25
2024/04/15 02:18:57;;;;;;;18.20;10.10;;;;;;;18.94;47.52;99862.06;5452882;26;19995;-25
2024/04/15 02:21:23;;;;;;;8.38;4.78;;;;;;;19.01;47.09;99855.63;5452946;26;20407;-25
2024/04/15 02:23:48;;;;;;;6.18;4.28;;;;;;;18.95;47.41;99858.28;5428518;26;20089;-26
2024/04/15 02:26:13;;;;;;;9.05;4.72;;;;;;;18.80;47.04;99846.53;5452940;26;20010;-26
2024/04/15 02:28:39;;;;;;;7.10;4.28;;;;;;;18.92;47.53;99855.28;5452328;26;19995;-26
2024/04/15 02:31:04;;;;;;;7.35;4.20;;;;;;;18.92;47.48;99855.28;5452592;26;19991;-26
2024/04/15 02:33:29;;;;;;;9.48;4.30;;;;;;;18.87;47.49;99863.34;5452856;26;20393;-26
2024/04/15 02:35:55;;;;;;;7.13;4.57;;;;;;;18.84;48.29;99864.66;5453216;26;19995;-25
2024/04/15 02:38:20;;;;;;;10.77;4.32;;;;;;;18.62;48.55;99869.22;5453159;26;19991;-26
2024/04/15 02:40:45;;;;;;;8.02;4.38;;;;;;;18.63;48.79;99866.28;5452052;26;20002;-26
2024/04/15 02:43:11;;;;;;;9.80;4.60;;;;;;;18.58;48.93;99877.00;5452739;26;19991;-26
2024/04/15 02:45:36;;;;;;;11.25;4.93;;;;;;;18.44;48.42;99857.72;5452337;26;19991;-26
2024/04/15 02:48:02;;;;;;;10.18;4.80;;;;;;;18.47;48.16;99859.13;5451786;26;20381;-26
2024/04/15 02:50:28;;;;;;;6.68;4.47;;;;;;;18.37;48.05;99865.19;5452300;26;20280;-26
2024/04/15 02:52:53;;;;;;;9.82;4.93;;;;;;;18.47;48.26;99864.53;5453136;26;20006;-26
2024/04/15 02:55:18;;;;;;;8.88;4.35;;;;;;;18.44;47.56;99865.00;5452174;26;20045;-26
2024/04/15 02:57:44;;;;;;;15.57;4.80;;;;;;;18.36;48.29;99869.78;5452072;26;20006;-26
2024/04/15 03:00:09;;;;;;;9.30;4.88;;;;;;;18.36;48.43;99867.06;5451642;26;20064;-25
2024/04/15 03:02:35;;;;;;;12.65;5.05;;;;;;;18.39;48.22;99865.78;5452451;26;20365;-25
2024/04/15 03:05:00;;;;;;;15.45;5.30;;;;;;;18.44;48.60;99867.72;5451978;26;20327;-25
2024/04/15 03:07:25;;;;;;;11.45;5.25;;;;;;;18.52;48.58;99868.09;5452261;26;20027;-25
2024/04/15 03:09:54;;;;;;;8.82;4.82;;;;;;;18.29;48.90;99865.66;5452171;26;20005;-25
2024/04/15 03:12:19;;;;;;;14.30;4.87;;;;;;;18.22;49.05;99873.94;5452304;26;19991;-25
2024/04/15 03:14:45;;;;;;;12.02;5.55;;;;;;;18.06;49.20;99872.09;5452096;26;19998;-26
2024/04/15 03:17:10;;;;;;;17.98;5.40;;;;;;;18.20;48.93;99876.06;5452177;26;19991;-25
2024/04/15 03:19:36;;;;;;;13.85;4.60;;;;;;;18.11;48.75;99866.78;5450026;26;20365;-25
2024/04/15 03:22:02;;;;;;;28.48;14.85;;;;;;;17.84;51.80;99875.59;5443873;26;20069;-26
2024/04/15 03:24:29;;;;;;;32.00;19.98;;;;;;;17.63;53.45;99870.94;5443791;26;20003;-25
2024/04/15 03:26:55;;;;;;;36.85;21.25;;;;;;;17.27;55.02;99871.22;5415562;26;20106;-25
2024/04/15 03:29:20;;;;;;;13.85;8.10;;;;;;;17.76;52.21;99865.19;5415036;26;20002;-25
2024/04/15 03:31:46;;;;;;;13.10;5.55;;;;;;;17.98;50.57;99860.69;5415974;26;19996;-25
2024/04/15 03:34:11;;;;;;;12.50;5.05;;;;;;;18.10;49.74;99865.94;5415867;26;20064;-26
2024/04/15 03:36:37;;;;;;;8.52;4.68;;;;;;;18.09;49.40;99866.22;5420057;26;20368;-26
2024/04/15 03:39:02;;;;;;;15.45;5.47;;;;;;;18.06;49.84;99864.03;5451756;26;20006;-25
2024/04/15 03:41:28;;;;;;;17.73;5.70;;;;;;;18.16;49.96;99866.81;5451237;26;20067;-25
2024/04/15 03:43:53;;;;;;;10.73;4.85;;;;;;;18.25;50.27;99862.63;5451620;26;20396;-25
2024/04/15 03:46:18;;;;;;;13.82;5.30;;;;;;;18.21;49.78;99874.97;5451696;26;20076;-25
2024/04/15 03:48:44;;;;;;;14.13;5.50;;;;;;;18.07;50.06;99871.84;5451752;26;19998;-25
2024/04/15 03:51:09;;;;;;;17.38;6.57;;;;;;;18.07;50.45;99866.47;5451885;26;19990;-25
2024/04/15 03:53:35;;;;;;;15.05;5.00;;;;;;;18.13;50.28;99870.84;5451227;26;19991;-25
2024/04/15 03:56:00;;;;;;;15.65;5.53;;;;;;;18.30;49.67;99869.97;5450590;26;20105;-26
2024/04/15 03:58:26;;;;;;;15.63;5.72;;;;;;;18.38;50.47;99882.19;5450437;26;19999;-26
2024/04/15 04:00:58;;;;;;;18.67;5.72;;;;;;;18.64;50.33;99872.50;5451529;26;19995;-26
2024/04/15 04:03:23;;;;;;;17.52;5.78;;;;;;;18.84;49.38;99878.13;5452640;26;19999;-26
2024/04/15 04:05:53;;;;;;;25.95;5.70;;;;;;;19.18;48.89;99879.78;5452054;26;19995;-26
2024/04/15 04:08:19;;;;;;;15.75;5.68;;;;;;;19.40;48.27;99885.91;5451976;26;19995;-26
2024/04/15 04:10:44;;;;;;;18.35;6.03;;;;;;;19.67;48.20;99885.81;5452201;26;20006;-26
2024/04/15 04:13:09;;;;;;;25.60;5.60;;;;;;;19.99;47.04;99884.13;5452341;26;20005;-26
2024/04/15 04:15:38;;;;;;;19.13;5.50;;;;;;;20.17;46.12;99888.28;5452646;26;20377;-26
2024/04/15 04:18:07;;;;;;;13.03;5.47;;;;;;;20.42;45.36;99877.56;5417005;26;19996;-25
2024/04/15 04:20:32;;;;;;;14.20;5.10;;;;;;;20.68;43.61;99874.97;5425802;26;20723;-27
2024/04/15 04:22:58;;;;;;;23.33;8.93;;;;;;;20.89;45.75;99878.53;5452304;26;19995;-26
2024/04/15 04:25:25;;;;;;;11.60;5.05;;;;;;;21.42;43.96;99883.69;5452146;26;20438;-26
2024/04/15 04:27:50;;;;;;;12.85;4.72;;;;;;;21.80;40.66;99881.47;5452490;26;19999;-27
2024/04/15 04:30:16;;;;;;;37.88;24.15;;;;;;;22.09;40.94;99883.59;5451879;26;19991;-25
2024/04/15 04:32:42;;;;;;;26.35;13.50;;;;;;;22.29;39.89;99886.22;5472861;26;20005;-28
2024/04/15 04:35:11;;;;;;;21.45;11.32;;;;;;;22.59;38.21;99873.59;5488511;26;20334;-26
2024/04/15 04:37:36;;;;;;;21.73;4.53;;;;;;;23.10;37.75;99886.06;5487095;26;20130;-26
2024/04/15 04:40:02;;;;;;;10.00;4.70;;;;;;;23.43;37.41;99893.34;5486381;26;20231;-27
2024/04/15 04:42:27;;;;;;;14.35;4.45;;;;;;;23.70;36.25;99877.63;5487985;26;20054;-26
2024/04/15 04:44:54;;;;;;;9.95;4.03;;;;;;;24.13;35.82;99875.03;5461375;26;20151;-28
2024/04/15 04:47:20;;;;;;;10.95;3.85;;;;;;;24.42;35.20;99872.19;5451892;26;20001;-25
2024/04/15 04:49:52;;;;;;;15.85;4.82;;;;;;;24.89;35.55;99878.63;5469486;26;20046;-27
2024/04/15 04:52:17;;;;;;;10.23;4.10;;;;;;;25.22;34.18;99886.81;5491105;26;20033;-28
2024/04/15 04:54:44;;;;;;;8.07;4.55;;;;;;;25.56;33.39;99888.44;5491969;26;19994;-26
2024/04/15 04:57:09;;;;;;;16.70;8.50;;;;;;;25.71;33.10;99890.91;5491842;26;20030;-26
2024/04/15 04:59:35;;;;;;;17.88;8.07;;;;;;;25.89;32.40;99894.66;5460137;26;19995;-27
2024/04/15 05:02:01;;;;;;;14.57;5.22;;;;;;;26.06;32.04;99891.34;5455189;26;20554;-27
2024/04/15 05:04:27;;;;;;;12.20;5.85;;;;;;;26.31;32.00;99892.75;5455282;26;19991;-28
2024/04/15 05:06:52;;;;;;;16.08;9.00;;;;;;;26.62;31.05;99888.59;5452942;26;20546;-27
2024/04/15 05:09:18;;;;;;;11.88;5.05;;;;;;;26.78;30.76;99883.59;5469205;26;20431;-26
2024/04/15 05:11:43;;;;;;;10.85;4.30;;;;;;;26.76;30.23;99891.28;5441918;26;20065;-27
2024/04/15 05:14:08;;;;;;;7.72;5.80;;;;;;;27.13;29.83;99884.66;5461577;26;19998;-27
2024/04/15 05:16:34;;;;;;;26.70;18.40;;;;;;;27.06;29.63;99873.38;5489259;26;20430;-27
2024/04/15 05:18:59;;;;;;;11.57;6.40;;;;;;;27.13;29.30;99881.94;5488639;26;20020;-26
2024/04/15 05:21:25;;;;;;;7.68;5.55;;;;;;;27.71;28.94;99888.41;5489440;26;20002;-28
2024/04/15 05:23:50;;;;;;;8.52;4.63;;;;;;;28.07;28.62;99888.25;5479504;26;20013;-27
2024/04/15 05:26:15;;;;;;;9.60;4.00;;;;;;;27.88;28.83;99887.66;5480492;26;20012;-28
2024/04/15 05:28:41;;;;;;;7.85;3.70;;;;;;;27.55;29.00;99889.91;5457169;26;20010;-27
2024/04/15 05:31:06;;;;;;;10.27;3.38;;;;;;;28.13;28.62;99886.16;5487984;26;19997;-28
2024/04/15 05:33:34;;;;;;;8.10;3.38;;;;;;;28.46;28.02;99881.09;5480132;26;20014;-27
2024/04/15 05:35:59;;;;;;;4.82;3.10;;;;;;;28.87;27.52;99889.19;5457968;26;20074;-28
2024/04/15 05:38:25;;;;;;;8.35;3.50;;;;;;;28.99;27.66;99883.88;5461162;26;20328;-29
2024/04/15 05:40:50;;;;;;;8.02;4.25;;;;;;;29.02;27.39;99888.72;5463090;26;20005;-27
2024/04/15 05:43:16;;;;;;;10.13;3.97;;;;;;;29.15;27.03;99882.28;5459906;26;20335;-26
2024/04/15 05:45:43;;;;;;;10.73;4.28;;;;;;;29.61;26.58;99886.19;5451312;26;20003;-30
2024/04/15 05:48:09;;;;;;;6.82;3.47;;;;;;;29.97;25.87;99889.63;5453369;26;20072;-28
2024/04/15 05:50:34;;;;;;;9.00;3.03;;;;;;;30.28;25.37;99885.75;5453746;26;20000;-27
2024/04/15 05:53:00;;;;;;;5.57;3.60;;;;;;;30.58;24.99;99887.34;5450694;26;20329;-27
2024/04/15 05:55:25;;;;;;;8.98;3.58;;;;;;;30.76;24.94;99885.25;5453534;26;20026;-27
2024/04/15 05:57:50;;;;;;;6.30;3.70;;;;;;;30.87;24.79;99887.59;5453895;26;19999;-26
2024/04/15 06:00:18;;;;;;;6.88;3.80;;;;;;;30.82;25.15;99879.56;5453339;26;20067;-26
2024/04/15 06:02:44;;;;;;;9.90;4.03;;;;;;;31.07;24.92;99886.81;5453472;26;19999;-27
2024/04/15 06:05:09;;;;;;;18.42;8.38;;;;;;;29.62;25.86;99882.31;5453157;26;19999;-27
2024/04/15 06:07:34;;;;;;;13.40;6.90;;;;;;;29.36;26.31;99887.03;5453068;26;20071;-28
2024/04/15 06:10:00;;;;;;;11.00;4.28;;;;;;;30.16;25.78;99881.78;5453152;26;20006;-28
2024/04/15 06:12:28;;;;;;;6.88;3.63;;;;;;;30.72;25.48;99883.53;5453255;26;20009;-27
2024/04/15 06:14:54;;;;;;;8.40;3.72;;;;;;;30.76;25.35;99870.72;5452730;26;19998;-26
2024/04/15 06:17:20;;;;;;;11.13;4.07;;;;;;;31.36;25.09;99872.09;5444708;26;20342;-26
2024/04/15 06:19:45;;;;;;;6.80;3.55;;;;;;;32.00;23.95;99871.84;5450126;26;20017;-26
2024/04/15 06:22:10;;;;;;;8.73;3.72;;;;;;;32.23;23.76;99866.69;5453452;26;19999;-26
2024/04/15 06:24:36;;;;;;;13.30;4.00;;;;;;;32.47;23.75;99872.16;5452774;26;20014;-27
2024/04/15 06:27:01;;;;;;;8.55;4.10;;;;;;;31.91;23.78;99867.28;5446259;26;20022;-27
2024/04/15 06:29:27;;;;;;;5.88;4.10;;;;;;;31.95;24.06;99868.19;5452615;26;19999;-28
2024/04/15 06:31:52;;;;;;;5.45;3.75;;;;;;;32.04;24.29;99864.53;5452908;26;19998;-28
2024/04/15 06:34:21;;;;;;;5.30;3.45;;;;;;;32.68;23.48;99869.25;5453103;26;20010;-28
2024/04/15 06:36:47;;;;;;;8.88;3.72;;;;;;;32.77;23.18;99866.38;5453381;26;20011;-26
2024/04/15 06:39:12;;;;;;;16.10;8.90;;;;;;;31.95;23.98;99868.19;5452962;26;20010;-26
2024/04/15 06:41:38;;;;;;;15.45;8.95;;;;;;;30.76;24.92;99860.53;5452678;26;20075;-28
2024/04/15 06:44:04;;;;;;;9.93;5.13;;;;;;;30.70;25.34;99861.88;5452379;26;20362;-27
2024/04/15 06:46:31;;;;;;;13.07;4.90;;;;;;;30.75;25.14;99861.69;5452615;26;20003;-27
2024/04/15 06:48:56;;;;;;;13.68;7.70;;;;;;;30.57;24.96;99861.00;5449930;26;20003;-27
2024/04/15 06:51:22;;;;;;;9.05;5.40;;;;;;;30.54;25.26;99858.94;5450420;26;19998;-26
2024/04/15 06:53:47;;;;;;;11.98;7.80;;;;;;;30.71;25.20;99854.44;5451800;26;20010;-25
2024/04/15 06:56:13;;;;;;;9.20;4.38;;;;;;;31.01;24.46;99855.16;5452224;26;20068;-28
2024/04/15 06:58:38;;;;;;;10.90;4.00;;;;;;;30.78;24.68;99855.50;5448673;26;20013;-27
2024/04/15 07:01:03;;;;;;;6.03;3.60;;;;;;;30.44;25.70;99842.06;5451628;26;20048;-28
2024/04/15 07:03:29;;;;;;;15.43;3.80;;;;;;;30.89;25.28;99855.09;5452524;26;20007;-39
2024/04/15 07:05:54;;;;;;;10.80;3.67;;;;;;;31.72;24.05;99842.25;5453576;26;19995;-40
2024/04/15 07:08:19;;;;;;;8.57;3.88;;;;;;;31.21;24.63;99831.53;5453593;26;20034;-42
2024/04/15 07:10:45;;;;;;;5.75;4.13;;;;;;;31.40;24.23;99841.16;5451180;26;20072;-42
2024/04/15 07:13:11;;;;;;;11.05;5.70;;;;;;;31.29;24.75;99833.38;5452201;26;20356;-39
2024/04/15 07:15:37;;;;;;;7.93;4.47;;;;;;;32.18;23.96;99840.22;5452576;26;20032;-43
2024/04/15 07:18:02;;;;;;;7.13;3.80;;;;;;;33.34;23.02;99838.75;5452475;26;19999;-37
2024/04/15 07:20:27;;;;;;;10.82;3.90;;;;;;;33.99;21.63;99833.69;5422295;26;19995;-39
2024/04/15 07:22:53;;;;;;;5.68;3.60;;;;;;;34.57;20.68;99830.19;5417264;26;20323;-41
2024/04/15 07:25:18;;;;;;;7.32;3.55;;;;;;;34.68;21.19;99827.69;5452411;26;20005;-40
2024/04/15 07:27:44;;;;;;;13.13;4.13;;;;;;;34.22;20.99;99831.06;5427901;26;19995;-36
2024/04/15 07:30:09;;;;;;;7.93;3.72;;;;;;;34.22;21.06;99831.06;5452752;26;20500;-39
2024/04/15 07:32:35;;;;;;;10.05;4.30;;;;;;;34.60;21.05;99829.50;5452731;26;20473;-39
2024/04/15 07:35:01;;;;;;;7.60;3.75;;;;;;;34.19;20.83;99829.00;5452945;26;20006;-37
2024/04/15 07:37:26;;;;;;;7.60;3.83;;;;;;;33.74;21.52;99819.31;5452863;26;19994;-39
2024/04/15 07:39:51;;;;;;;10.35;4.43;;;;;;;34.09;21.22;99824.03;5452770;26;20067;-40
2024/04/15 07:42:17;;;;;;;8.05;4.53;;;;;;;34.46;20.92;99815.38;5452614;26;19995;-36
2024/04/15 07:44:46;;;;;;;9.50;3.83;;;;;;;34.96;20.82;99815.59;5452701;26;20342;-41
2024/04/15 07:47:12;;;;;;;9.40;3.58;;;;;;;35.63;19.67;99815.19;5452413;26;20010;-40
2024/04/15 07:49:37;;;;;;;6.53;3.65;;;;;;;36.20;19.37;99804.19;5450352;26;20004;-40
2024/04/15 07:52:03;;;;;;;8.43;3.30;;;;;;;36.47;18.88;99815.22;5451668;26;20025;-37
2024/04/15 07:54:29;;;;;;;5.57;3.25;;;;;;;36.15;19.20;99804.47;5451595;26;20400;-36
2024/04/15 07:56:54;;;;;;;5.93;3.03;;;;;;;35.97;17.99;99807.81;5452112;26;20036;-41
2024/04/15 07:59:19;;;;;;;8.18;3.30;;;;;;;35.68;18.92;99806.59;5451844;26;20001;-39
2024/04/15 08:01:45;;;;;;;6.55;3.40;;;;;;;35.21;19.24;99811.34;5452141;26;20001;-38
2024/04/15 08:04:10;;;;;;;7.38;3.70;;;;;;;34.49;19.55;99806.38;5452629;26;20003;-38
2024/04/15 08:06:35;;;;;;;8.68;3.58;;;;;;;35.09;19.27;99786.63;5452889;26;19995;-40
2024/04/15 08:09:01;;;;;;;7.22;3.40;;;;;;;35.79;19.40;99779.84;5452873;26;20022;-38
2024/04/15 08:11:27;;;;;;;9.07;3.60;;;;;;;36.29;17.87;99790.88;5452254;26;20002;-40
2024/04/15 08:13:52;;;;;;;7.95;3.58;;;;;;;36.07;18.16;99775.13;5452178;26;19994;-37
2024/04/15 08:16:17;;;;;;;5.28;3.30;;;;;;;36.37;18.02;99773.16;5451793;26;20001;-41
2024/04/15 08:18:47;;;;;;;31.88;4.20;;;;;;;36.34;18.83;99768.34;5451743;26;20229;-39
2024/04/15 08:21:13;;;;;;;14.77;3.80;;;;;;;36.38;18.58;99762.84;5451991;26;20003;-39
2024/04/15 08:23:38;;;;;;;6.90;3.40;;;;;;;35.56;18.94;99762.50;5452032;26;20006;-37
2024/04/15 08:26:06;;;;;;;9.98;3.45;;;;;;;35.17;19.83;99759.88;5452174;26;20431;-37
2024/04/15 08:28:31;;;;;;;8.13;3.53;;;;;;;35.08;19.47;99751.84;5452422;26;20005;-41
2024/04/15 08:30:57;;;;;;;12.15;3.38;;;;;;;35.91;19.12;99751.19;5452375;26;20228;-38
2024/04/15 08:33:22;;;;;;;7.00;3.40;;;;;;;36.62;19.21;99755.22;5452278;26;20308;-39
2024/04/15 08:35:48;;;;;;;9.52;3.50;;;;;;;35.86;20.18;99742.41;5452341;26;20002;-39
2024/04/15 08:38:13;;;;;;;9.98;3.20;;;;;;;35.49;19.87;99746.59;5451835;26;20037;-40
2024/04/15 08:40:48;;;;;;;7.10;3.65;;;;;;;35.46;19.48;99741.00;5451995;26;19998;-40
2024/04/15 08:43:20;;;;;;;8.45;3.70;;;;;;;35.47;19.32;99742.59;5451636;26;19999;-40
2024/04/15 08:45:47;;;;;;;9.70;3.50;;;;;;;35.61;19.87;99732.53;5451378;26;20445;-36
2024/04/15 08:48:15;;;;;;;10.70;3.80;;;;;;;36.05;19.46;99741.47;5451732;26;20102;-36
2024/04/15 08:50:40;;;;;;;9.37;3.67;;;;;;;35.17;21.05;99735.00;5451907;26;20360;-38
2024/04/15 08:53:06;;;;;;;11.40;3.70;;;;;;;34.84;20.92;99736.41;5451464;26;20005;-40
2024/04/15 08:55:32;;;;;;;8.38;3.15;;;;;;;35.11;21.40;99728.16;5452423;26;20003;-39
2024/04/15 08:57:58;;;;;;;11.30;3.70;;;;;;;35.60;20.47;99722.66;5451072;26;20132;-39
2024/04/15 09:00:24;;;;;;;7.90;3.30;;;;;;;35.50;20.86;99719.72;5450445;26;20425;-38
2024/04/15 09:02:51;;;;;;;9.73;3.30;;;;;;;34.64;21.45;99721.81;5451284;26;20002;-36
2024/04/15 09:05:17;;;;;;;9.37;3.70;;;;;;;34.82;20.92;99711.91;5451398;26;20110;-36
2024/04/15 09:07:44;;;;;;;13.70;3.55;;;;;;;35.15;21.03;99704.94;5451586;26;20232;-38
2024/04/15 09:10:11;;;;;;;7.03;3.55;;;;;;;35.31;21.00;99710.34;5451916;26;20009;-35
2024/04/15 09:12:41;;;;;;;9.05;3.75;;;;;;;35.36;20.92;99703.72;5450704;26;19991;-39
2024/04/15 09:15:09;;;;;;;11.02;3.58;;;;;;;35.19;21.38;99703.06;5451197;26;20005;-40
2024/04/15 09:17:36;;;;;;;9.20;3.63;;;;;;;35.50;21.03;99697.59;5451543;26;20005;-40
2024/04/15 09:20:02;;;;;;;10.60;4.10;;;;;;;34.88;21.05;99693.06;5451438;26;20002;-38
2024/04/15 09:22:32;;;;;;;12.70;3.80;;;;;;;34.89;21.73;99674.50;5450995;26;20005;-36
2024/04/15 09:24:57;;;;;;;10.73;4.00;;;;;;;33.67;22.55;99690.25;5450928;26;20021;-36
2024/04/15 09:27:25;;;;;;;9.18;3.55;;;;;;;33.64;21.67;99681.91;5451363;26;19995;-36
2024/04/15 09:29:54;;;;;;;7.93;3.60;;;;;;;34.04;21.32;99676.06;5450309;26;20006;-39
2024/04/15 09:32:21;;;;;;;7.53;3.88;;;;;;;34.41;21.12;99663.78;5450284;26;19991;-38
2024/04/15 09:34:47;;;;;;;7.70;3.90;;;;;;;33.71;22.35;99660.00;5453113;26;19991;-39
2024/04/15 09:37:12;;;;;;;8.45;3.78;;;;;;;33.37;23.05;99661.59;5454297;26;20001;-40
2024/04/15 09:39:38;;;;;;;5.70;3.35;;;;;;;33.64;23.23;99660.66;5454504;26;19998;-38
2024/04/15 09:42:05;;;;;;;6.68;3.00;;;;;;;32.95;23.10;99656.63;5454776;26;20010;-37
2024/04/15 09:44:32;;;;;;;9.45;3.40;;;;;;;32.28;24.31;99655.28;5454821;26;20001;-38
2024/04/15 09:47:00;;;;;;;4.95;3.45;;;;;;;32.06;24.54;99642.09;5454333;26;20023;-38
2024/04/15 09:49:26;;;;;;;9.83;3.17;;;;;;;31.44;24.78;99636.72;5454263;26;19990;-39
2024/04/15 09:51:59;;;;;;;4.65;2.90;;;;;;;32.36;23.51;99631.50;5454759;26;19994;-38
2024/04/15 09:54:33;;;;;;;8.45;2.92;;;;;;;32.84;23.43;99629.63;5453912;26;19995;-37
2024/04/15 09:57:23;;;;;;;6.45;2.92;;;;;;;32.33;23.87;99627.53;5454404;26;20006;-37
2024/04/15 09:59:56;;;;;;;;;;;;;;;32.53;23.25;99619.38;5454497;26;20006;-37
2024/04/15 10:02:52;;;;;;;9.27;2.80;;;;;;;32.02;23.34;99603.47;5453998;26;19931;-40
2024/04/15 10:05:22;;;;;;;4.68;2.83;;;;;;;32.39;23.62;99608.78;5446016;26;20026;-40
2024/04/15 10:07:52;;;;;;;5.38;2.90;;;;;;;32.15;23.79;99606.97;5454434;26;19991;-39
2024/04/15 10:10:19;;;;;;;3.17;2.25;;;;;;;31.24;22.69;99602.72;5453515;26;20002;-37
2024/04/15 10:12:48;;;;;;;6.22;2.38;;;;;;;31.33;23.29;99599.88;5454337;26;20001;-40
2024/04/15 10:15:15;;;;;;;5.38;2.70;;;;;;;32.01;22.93;99596.34;5454501;26;20068;-37
2024/04/15 10:17:41;;;;;;;3.58;2.58;;;;;;;32.50;22.42;99595.28;5453669;26;19991;-39
2024/04/15 10:20:08;;;;;;;6.90;2.50;;;;;;;32.26;23.31;99591.53;5454883;26;20167;-40
2024/04/15 10:22:33;;;;;;;4.35;2.70;;;;;;;31.84;24.10;99597.44;5454663;26;20027;-39
2024/04/15 10:24:58;;;;;;;4.03;2.55;;;;;;;31.82;24.20;99580.50;5454103;26;19990;-36
2024/04/15 10:27:24;;;;;;;5.32;2.47;;;;;;;32.32;22.83;99587.38;5454135;26;20067;-39
2024/04/15 10:29:50;;;;;;;2.75;2.35;;;;;;;31.82;23.38;99572.25;5446946;26;20415;-40
2024/04/15 10:32:15;;;;;;;3.65;2.38;;;;;;;32.29;21.82;99574.34;5453618;26;19998;-39
2024/04/15 10:34:42;;;;;;;4.32;2.15;;;;;;;32.06;22.26;99571.38;5445957;26;20427;-38
2024/04/15 10:37:14;;;;;;;5.43;2.30;;;;;;;31.44;23.23;99573.50;5449644;26;20010;-36
2024/04/15 10:39:45;;;;;;;4.38;2.33;;;;;;;31.91;22.87;99556.41;5453079;26;20373;-38
2024/04/15 10:42:11;;;;;;;4.82;2.53;;;;;;;31.59;22.48;99550.00;5453203;26;20071;-40
2024/04/15 10:44:37;;;;;;;7.30;2.78;;;;;;;31.52;23.01;99538.78;5452274;26;20009;-37
2024/04/15 10:47:05;;;;;;;4.53;2.33;;;;;;;31.31;22.12;99544.44;5452466;26;19995;-38
2024/04/15 10:49:30;;;;;;;4.78;2.30;;;;;;;31.53;22.36;99524.69;5453609;26;19995;-39
2024/04/15 10:51:56;;;;;;;3.25;2.50;;;;;;;32.17;22.34;99530.34;5451179;26;20023;-38
2024/04/15 10:54:21;;;;;;;5.60;2.70;;;;;;;31.67;22.72;99520.75;5449526;26;20006;-40
2024/04/15 10:56:47;;;;;;;6.18;2.50;;;;;;;32.42;21.28;99513.66;5453031;26;19995;-41
2024/04/15 10:59:15;;;;;;;4.47;2.13;;;;;;;32.15;21.60;99511.44;5453398;26;20006;-39
2024/04/15 11:01:45;;;;;;;5.18;2.53;;;;;;;32.13;22.32;99513.75;5451235;26;20023;-38
2024/04/15 11:04:11;;;;;;;6.97;2.60;;;;;;;32.49;22.50;99497.31;5452990;26;19998;-43
2024/04/15 11:06:36;;;;;;;5.00;2.70;;;;;;;32.71;23.00;99496.69;5453145;26;20002;-40
2024/04/15 11:09:04;;;;;;;5.82;2.42;;;;;;;32.85;22.44;99489.91;5452433;26;20007;-37
2024/04/15 11:11:31;;;;;;;7.63;2.70;;;;;;;32.79;22.28;99492.16;5453188;26;20782;-42
2024/04/15 11:13:57;;;;;;;9.27;2.70;;;;;;;32.97;22.09;99477.97;5452622;26;20010;-40
2024/04/15 11:16:24;;;;;;;3.88;2.60;;;;;;;33.19;21.31;99490.28;5452791;26;20736;-41
2024/04/15 11:18:49;;;;;;;5.15;2.53;;;;;;;33.05;21.49;99476.94;5452466;26;20089;-39
2024/04/15 11:21:16;;;;;;;3.30;2.38;;;;;;;33.18;20.58;99458.34;5452634;26;20003;-38
2024/04/15 11:23:41;;;;;;;4.95;2.47;;;;;;;33.39;20.81;99457.97;5447571;26;20002;-38
2024/04/15 11:26:09;;;;;;;4.20;2.50;;;;;;;33.47;21.27;99455.00;5451405;26;20010;-41